KGRK

Robert Gray AAF Airport

Fort Hood/Killeen, Texas, USA
METAR KGRK 201203Z AUTO 17008KT 10SM OVC009 11/10 A2999 RMK AO2 SLP156
Observed Flight Rules
Jan-20 @ 12:03 UTC (an hour ago) Instrument Flight Rules
Wind Visibility Clouds
170° at 8 knots 10 miles
  • Overcast at 900' AGL
Temperatures Readings
Current 11°C / 52°F
Dewpoint 10°C / 50°F
Humidity 94%
Altimeter 29.99" Hg
Pressure 1015.6 hPa
Elevation 309
METAR KGRK 201203Z AUTO 17008KT 10SM OVC009 11/10 A2999 RMK AO2 SLP156
Observed Flight Rules
Jan-20 @ 12:03 UTC
(an hour ago)
IFR
Wind Visibility
170° at 8 knots 10 miles
Clouds
  • Overcast at 900' AGL
Temperature Dewpoint
11°C / 52°F 10°C / 50°F
Humidity Altimeter Pressure
94% 29.99" Hg 1015.6 hPa